createdAt,value
2019-01-20T00:00:40.492Z,16.20
2019-01-20T00:03:08.645Z,18.13
2019-01-20T00:05:36.782Z,18.00
2019-01-20T00:08:04.982Z,16.83
2019-01-20T00:10:33.224Z,17.70
2019-01-20T00:13:01.435Z,18.23
2019-01-20T00:15:29.629Z,19.17
2019-01-20T00:17:58.197Z,18.60
2019-01-20T00:20:28.183Z,17.50
2019-01-20T00:22:56.851Z,19.37
2019-01-20T00:25:24.992Z,18.17
2019-01-20T00:27:53.416Z,18.27
2019-01-20T00:30:21.551Z,20.77
2019-01-20T00:32:49.757Z,18.70
2019-01-20T00:35:17.922Z,17.13
2019-01-20T00:37:46.145Z,18.00
2019-01-20T00:40:15.929Z,17.97
2019-01-20T00:42:44.130Z,20.30
2019-01-20T00:45:13.738Z,18.73
2019-01-20T00:47:41.891Z,18.43
2019-01-20T00:50:11.226Z,19.83
2019-01-20T00:52:39.432Z,19.13
2019-01-20T00:55:27.063Z,21.50
2019-01-20T00:57:55.258Z,20.17
2019-01-20T01:00:25.122Z,18.40
2019-01-20T01:02:53.317Z,21.73
2019-01-20T01:05:21.468Z,20.63
2019-01-20T01:07:49.805Z,19.30
2019-01-20T01:10:18.020Z,19.37
2019-01-20T01:12:46.443Z,22.33
2019-01-20T01:15:14.573Z,20.00
2019-01-20T01:17:42.724Z,19.53
2019-01-20T01:20:12.379Z,19.77
2019-01-20T01:22:40.708Z,21.17
2019-01-20T01:25:11.269Z,19.17
2019-01-20T01:27:39.963Z,20.27
2019-01-20T01:30:13.131Z,20.67
2019-01-20T01:32:41.344Z,20.63
2019-01-20T01:35:09.494Z,20.67
2019-01-20T01:37:37.646Z,19.87
2019-01-20T01:40:07.566Z,19.60
2019-01-20T01:42:35.686Z,21.17
2019-01-20T01:45:05.987Z,22.50
2019-01-20T01:47:34.127Z,22.13
2019-01-20T01:50:02.250Z,20.50
2019-01-20T01:52:30.492Z,21.73
2019-01-20T01:54:58.659Z,19.83
2019-01-20T01:57:26.875Z,22.33
2019-01-20T01:59:55.014Z,23.40
2019-01-20T02:02:23.156Z,21.60
2019-01-20T02:04:51.296Z,22.50
2019-01-20T02:07:19.440Z,22.40
2019-01-20T02:09:47.573Z,24.07
2019-01-20T02:12:15.825Z,20.80
2019-01-20T02:14:43.975Z,18.93
2019-01-20T02:17:12.166Z,20.47
2019-01-20T02:19:40.362Z,22.90
2019-01-20T02:22:08.516Z,21.40
2019-01-20T02:24:36.728Z,20.97
2019-01-20T02:27:04.868Z,22.03
2019-01-20T02:29:33.055Z,24.40
2019-01-20T02:32:01.245Z,21.27
2019-01-20T02:34:29.377Z,23.00
2019-01-20T02:36:57.579Z,21.83
2019-01-20T02:39:25.802Z,21.40
2019-01-20T02:41:55.298Z,24.20
2019-01-20T02:44:23.818Z,22.47
2019-01-20T02:46:52.148Z,23.10
2019-01-20T02:49:20.342Z,24.43
2019-01-20T02:51:48.517Z,23.50
2019-01-20T02:54:16.652Z,24.67
2019-01-20T02:56:44.810Z,22.20
2019-01-20T02:59:13.173Z,25.30
2019-01-20T03:01:41.466Z,26.27
2019-01-20T03:04:09.690Z,24.17
2019-01-20T03:06:37.997Z,24.43
2019-01-20T03:09:08.208Z,24.43
2019-01-20T03:11:36.562Z,23.67
2019-01-20T03:14:04.768Z,22.33
2019-01-20T03:16:32.990Z,24.23
2019-01-20T03:19:01.710Z,24.63
2019-01-20T03:21:29.858Z,24.73
2019-01-20T03:23:58.117Z,24.57
2019-01-20T03:26:26.239Z,25.93
2019-01-20T03:28:54.443Z,23.10
2019-01-20T03:31:22.667Z,25.77
2019-01-20T03:33:50.806Z,25.30
2019-01-20T03:36:18.975Z,27.40
2019-01-20T03:38:47.104Z,24.73
2019-01-20T03:41:15.240Z,26.20
2019-01-20T03:43:43.437Z,24.03
2019-01-20T03:46:11.771Z,26.13
2019-01-20T03:48:39.934Z,26.17
2019-01-20T03:51:08.173Z,26.03
2019-01-20T03:53:36.347Z,25.73
2019-01-20T03:56:04.708Z,26.33
2019-01-20T03:58:32.845Z,26.60
2019-01-20T04:01:01.055Z,29.37
2019-01-20T04:03:29.233Z,27.07
2019-01-20T04:05:57.404Z,26.83
2019-01-20T04:08:25.530Z,27.67
2019-01-20T04:10:53.673Z,27.60
2019-01-20T04:13:21.829Z,29.23
2019-01-20T04:15:50.066Z,27.17
2019-01-20T04:18:18.196Z,28.77
2019-01-20T04:20:46.366Z,27.37
2019-01-20T04:23:14.508Z,29.07
2019-01-20T04:25:42.730Z,28.80
2019-01-20T04:28:10.929Z,26.77
2019-01-20T04:30:39.093Z,27.83
2019-01-20T04:33:07.300Z,27.53
2019-01-20T04:35:35.524Z,29.97
2019-01-20T04:38:03.649Z,31.17
2019-01-20T04:40:31.811Z,29.40
2019-01-20T04:43:00.241Z,28.30
2019-01-20T04:45:28.844Z,30.20
2019-01-20T04:47:56.988Z,31.67
2019-01-20T04:50:25.125Z,32.80
2019-01-20T04:52:53.277Z,28.63
2019-01-20T04:55:21.484Z,32.30
2019-01-20T04:57:51.048Z,29.37
2019-01-20T05:00:20.420Z,30.60
2019-01-20T05:02:48.594Z,32.43
2019-01-20T05:05:16.884Z,29.97
2019-01-20T05:07:45.019Z,34.63
2019-01-20T05:10:14.364Z,33.13
2019-01-20T05:12:42.500Z,30.17
2019-01-20T05:15:11.693Z,30.93
2019-01-20T05:17:39.918Z,31.67
2019-01-20T05:20:09.126Z,32.57
2019-01-20T05:22:37.309Z,31.87
2019-01-20T05:25:06.875Z,33.33
2019-01-20T05:27:35.029Z,34.23
2019-01-20T05:30:04.516Z,33.67
2019-01-20T05:32:33.002Z,30.13
2019-01-20T05:35:01.179Z,33.63
2019-01-20T05:37:29.546Z,34.10
2019-01-20T05:39:57.747Z,35.07
2019-01-20T05:42:25.966Z,31.57
2019-01-20T05:44:54.133Z,37.30
2019-01-20T05:47:22.262Z,32.10
2019-01-20T05:49:50.397Z,32.77
2019-01-20T05:52:18.765Z,33.30
2019-01-20T05:54:46.971Z,34.57
2019-01-20T05:57:15.126Z,36.10
2019-01-20T05:59:43.360Z,34.90
2019-01-20T06:02:11.525Z,35.73
2019-01-20T06:04:39.654Z,37.73
2019-01-20T06:07:07.818Z,36.53
2019-01-20T06:09:35.967Z,37.70
2019-01-20T06:12:04.188Z,42.13
2019-01-20T06:14:32.422Z,38.50
2019-01-20T06:17:00.568Z,40.57
2019-01-20T06:19:28.744Z,38.63
2019-01-20T06:21:56.865Z,40.97
2019-01-20T06:24:25.068Z,40.57
2019-01-20T06:26:53.294Z,38.23
2019-01-20T06:29:21.485Z,39.97
2019-01-20T06:31:49.753Z,39.80
2019-01-20T06:34:17.987Z,41.37
2019-01-20T06:36:46.402Z,39.80
2019-01-20T06:39:14.813Z,38.53
2019-01-20T06:41:42.968Z,41.50
2019-01-20T06:44:11.108Z,37.73
2019-01-20T06:46:39.250Z,40.43
2019-01-20T06:49:07.417Z,40.60
2019-01-20T06:51:35.624Z,42.73
2019-01-20T06:54:03.923Z,39.17
2019-01-20T06:56:32.104Z,41.10
2019-01-20T06:59:00.331Z,43.07
2019-01-20T07:01:28.754Z,42.40
2019-01-20T07:03:56.933Z,41.67
2019-01-20T07:06:25.141Z,41.50
2019-01-20T07:08:53.279Z,40.07
2019-01-20T07:11:21.462Z,43.40
2019-01-20T07:13:49.589Z,44.37
2019-01-20T07:16:17.795Z,41.97
2019-01-20T07:18:45.959Z,40.80
2019-01-20T07:21:14.118Z,42.23
2019-01-20T07:23:42.328Z,42.70
2019-01-20T07:26:10.585Z,46.03
2019-01-20T07:28:38.791Z,43.43
2019-01-20T07:31:07.078Z,41.07
2019-01-20T07:33:35.288Z,43.10
2019-01-20T07:36:03.495Z,43.50
2019-01-20T07:38:31.663Z,44.07
2019-01-20T07:40:59.818Z,42.77
2019-01-20T07:43:27.952Z,42.80
2019-01-20T07:45:56.455Z,41.07
2019-01-20T07:48:24.607Z,42.90
2019-01-20T07:50:52.916Z,43.70
2019-01-20T07:53:21.120Z,42.77
2019-01-20T07:55:50.913Z,44.23
2019-01-20T07:58:19.246Z,45.47
2019-01-20T08:00:47.377Z,41.97
2019-01-20T08:03:15.797Z,42.43
2019-01-20T08:05:43.971Z,43.97
2019-01-20T08:08:12.103Z,41.33
2019-01-20T08:10:40.236Z,45.50
2019-01-20T08:13:09.151Z,45.27
2019-01-20T08:15:37.361Z,44.30
2019-01-20T08:18:05.536Z,42.30
2019-01-20T08:20:33.846Z,44.27
2019-01-20T08:23:03.256Z,45.30
2019-01-20T08:25:31.834Z,46.53
2019-01-20T08:27:59.962Z,42.20
2019-01-20T08:30:28.204Z,44.60
2019-01-20T08:32:56.383Z,48.23
2019-01-20T08:35:24.805Z,45.87
2019-01-20T08:37:54.290Z,48.13
2019-01-20T08:40:23.881Z,44.67
2019-01-20T08:42:52.122Z,45.93
2019-01-20T08:45:37.008Z,46.97
2019-01-20T08:48:06.915Z,46.17
2019-01-20T08:50:35.119Z,48.13
2019-01-20T08:53:03.571Z,47.97
2019-01-20T08:55:31.718Z,44.87
2019-01-20T08:57:59.863Z,45.33
2019-01-20T09:00:28.086Z,44.97
2019-01-20T09:02:56.228Z,46.63
2019-01-20T09:05:24.372Z,48.90
2019-01-20T09:07:52.503Z,47.97
2019-01-20T09:10:22.002Z,47.13
2019-01-20T09:13:10.303Z,46.47
2019-01-20T09:15:38.512Z,48.47
2019-01-20T09:18:06.949Z,47.13
2019-01-20T09:20:35.154Z,46.63
2019-01-20T09:23:03.449Z,48.90
2019-01-20T09:25:31.629Z,49.20
2019-01-20T09:27:59.820Z,47.47
2019-01-20T09:30:28.026Z,46.20
2019-01-20T09:32:56.199Z,48.27
2019-01-20T09:35:24.421Z,47.93
2019-01-20T09:37:52.506Z,46.20
2019-01-20T09:40:20.663Z,47.07
2019-01-20T09:42:48.863Z,48.40
2019-01-20T09:45:23.230Z,49.63
2019-01-20T09:47:51.354Z,49.73
2019-01-20T09:50:19.667Z,50.80
2019-01-20T09:52:47.754Z,52.03
2019-01-20T09:55:16.190Z,48.83
2019-01-20T09:57:44.804Z,48.20
2019-01-20T10:00:14.693Z,47.67
2019-01-20T10:02:42.819Z,52.40
2019-01-20T10:05:11.037Z,50.10
2019-01-20T10:07:39.154Z,49.53
2019-01-20T10:10:08.909Z,49.47
2019-01-20T10:12:37.036Z,48.23
2019-01-20T10:15:06.907Z,47.43
2019-01-20T10:17:35.051Z,50.97
2019-01-20T10:20:04.798Z,50.93
2019-01-20T10:22:32.940Z,48.53
2019-01-20T10:25:01.202Z,48.47
2019-01-20T10:27:29.338Z,49.80
2019-01-20T10:29:57.634Z,51.13
2019-01-20T10:32:25.772Z,50.43
2019-01-20T10:34:54.836Z,52.67
2019-01-20T10:37:23.145Z,50.77
2019-01-20T10:39:51.348Z,51.20
2019-01-20T10:42:19.608Z,53.10
2019-01-20T10:44:48.067Z,52.07
2019-01-20T10:47:16.285Z,50.93
2019-01-20T10:49:44.535Z,49.00
2019-01-20T10:52:12.736Z,47.97
2019-01-20T10:54:41.129Z,48.70
2019-01-20T10:57:09.461Z,53.57
2019-01-20T10:59:38.028Z,51.50
2019-01-20T11:02:06.178Z,46.37
2019-01-20T11:04:34.313Z,54.13
2019-01-20T11:07:02.506Z,51.70
2019-01-20T11:09:30.703Z,53.20
2019-01-20T11:11:58.975Z,50.67
2019-01-20T11:14:27.217Z,51.60
2019-01-20T11:16:55.342Z,48.67
2019-01-20T11:19:23.484Z,52.73
2019-01-20T11:21:51.748Z,53.87
2019-01-20T11:24:19.891Z,49.37
2019-01-20T11:26:48.099Z,53.33
2019-01-20T11:29:16.316Z,54.93
2019-01-20T11:31:44.521Z,50.20
2019-01-20T11:34:12.746Z,49.50
2019-01-20T11:36:40.879Z,53.53
2019-01-20T11:39:10.406Z,47.43
2019-01-20T11:41:38.533Z,51.93
2019-01-20T11:44:06.671Z,50.13
2019-01-20T11:46:34.951Z,49.67
2019-01-20T11:49:03.137Z,50.67
2019-01-20T11:51:31.287Z,51.73
2019-01-20T11:53:59.638Z,49.17
2019-01-20T11:56:27.876Z,49.43
2019-01-20T11:58:56.022Z,50.30
2019-01-20T12:01:24.155Z,53.60
2019-01-20T12:03:52.378Z,50.00
2019-01-20T12:06:20.620Z,50.83
2019-01-20T12:08:48.742Z,50.87
2019-01-20T12:11:16.873Z,49.83
2019-01-20T12:13:45.118Z,49.50
2019-01-20T12:16:13.320Z,49.60
2019-01-20T12:18:41.445Z,51.77
2019-01-20T12:21:09.663Z,49.57
2019-01-20T12:23:37.814Z,53.23
2019-01-20T12:26:05.952Z,50.40
2019-01-20T12:28:34.213Z,50.70
2019-01-20T12:31:02.334Z,52.83
2019-01-20T12:33:30.550Z,49.53
2019-01-20T12:35:59.043Z,50.70
2019-01-20T12:38:27.262Z,51.10
2019-01-20T12:40:55.388Z,50.27
2019-01-20T12:43:23.721Z,50.87
2019-01-20T12:45:51.897Z,49.70
2019-01-20T12:48:20.021Z,49.47
2019-01-20T12:50:48.134Z,53.27
2019-01-20T12:53:16.340Z,48.70
2019-01-20T12:55:44.481Z,50.60
2019-01-20T12:58:12.717Z,50.53
2019-01-20T13:00:40.846Z,50.50
2019-01-20T13:03:08.982Z,51.00
2019-01-20T13:05:37.169Z,51.20
2019-01-20T13:08:05.390Z,50.77
2019-01-20T13:10:33.656Z,47.37
2019-01-20T13:13:03.716Z,50.93
2019-01-20T13:15:31.968Z,50.47
2019-01-20T13:18:00.225Z,49.40
2019-01-20T13:20:28.349Z,50.50
2019-01-20T13:22:56.541Z,46.97
2019-01-20T13:25:26.330Z,47.67
2019-01-20T13:27:54.673Z,45.97
2019-01-20T13:30:23.948Z,49.63
2019-01-20T13:32:52.083Z,44.93
2019-01-20T13:35:23.775Z,45.23
2019-01-20T13:37:53.600Z,47.23
2019-01-20T13:40:23.517Z,44.83
2019-01-20T13:42:51.641Z,47.17
2019-01-20T13:45:19.851Z,46.47
2019-01-20T13:47:48.877Z,47.40
2019-01-20T13:50:18.960Z,47.27
2019-01-20T13:52:47.153Z,44.47
2019-01-20T13:55:16.039Z,46.23
2019-01-20T13:57:44.203Z,42.70
2019-01-20T14:00:19.473Z,44.60
2019-01-20T14:02:47.685Z,46.67
2019-01-20T14:05:16.352Z,45.53
2019-01-20T14:07:44.477Z,45.37
2019-01-20T14:10:14.183Z,44.97
2019-01-20T14:12:42.510Z,43.97
2019-01-20T14:15:11.628Z,44.23
2019-01-20T14:17:39.835Z,42.80
2019-01-20T14:20:09.681Z,45.00
2019-01-20T14:22:37.842Z,42.30
2019-01-20T14:25:07.599Z,41.30
2019-01-20T14:27:35.775Z,44.47
2019-01-20T14:30:05.558Z,42.60
2019-01-20T14:32:33.695Z,42.27
2019-01-20T14:35:01.936Z,46.00
2019-01-20T14:37:30.085Z,45.23
2019-01-20T14:39:58.220Z,44.27
2019-01-20T14:42:26.672Z,44.67
2019-01-20T14:45:00.900Z,41.40
2019-01-20T14:47:24.585Z,44.67
2019-01-20T14:49:52.806Z,43.03
2019-01-20T14:52:20.940Z,40.40
2019-01-20T14:54:49.083Z,45.80
2019-01-20T14:57:17.264Z,42.57
2019-01-20T14:59:45.696Z,45.43
2019-01-20T15:02:13.850Z,44.30
2019-01-20T15:04:42.025Z,43.70
2019-01-20T15:07:10.160Z,43.23
2019-01-20T15:09:38.298Z,43.37
2019-01-20T15:12:06.637Z,43.53
2019-01-20T15:14:34.726Z,45.57
2019-01-20T15:17:02.970Z,45.20
2019-01-20T15:19:31.095Z,40.13
2019-01-20T15:21:59.239Z,47.83
2019-01-20T15:24:31.235Z,42.83
2019-01-20T15:26:57.504Z,42.80
2019-01-20T15:29:25.708Z,43.03
2019-01-20T15:31:53.845Z,44.70
2019-01-20T15:34:22.029Z,43.40
2019-01-20T15:36:50.400Z,43.33
2019-01-20T15:39:18.597Z,42.83
2019-01-20T15:41:46.759Z,43.60
2019-01-20T15:44:14.900Z,40.97
2019-01-20T15:46:43.118Z,44.70
2019-01-20T15:49:11.275Z,43.57
2019-01-20T15:51:39.599Z,41.33
2019-01-20T15:54:07.803Z,42.53
2019-01-20T15:56:36.002Z,44.37
2019-01-20T15:59:04.241Z,41.87
2019-01-20T16:01:32.387Z,43.73
2019-01-20T16:04:00.602Z,43.27
2019-01-20T16:06:28.822Z,41.73
2019-01-20T16:08:56.969Z,41.30
2019-01-20T16:11:25.093Z,39.57
2019-01-20T16:13:53.310Z,43.20
2019-01-20T16:16:21.473Z,41.07
2019-01-20T16:18:49.617Z,40.23
2019-01-20T16:21:17.785Z,40.80
2019-01-20T16:23:45.962Z,40.60
2019-01-20T16:26:14.919Z,42.57
2019-01-20T16:28:43.435Z,39.43
2019-01-20T16:31:11.716Z,39.30
2019-01-20T16:33:39.850Z,40.97
2019-01-20T16:36:08.109Z,42.27
2019-01-20T16:38:36.207Z,41.70
2019-01-20T16:41:04.548Z,40.70
2019-01-20T16:43:32.687Z,42.23
2019-01-20T16:46:00.848Z,39.33
2019-01-20T16:48:28.977Z,40.57
2019-01-20T16:50:57.145Z,41.07
2019-01-20T16:53:25.387Z,38.50
2019-01-20T16:55:53.511Z,38.17
2019-01-20T16:58:21.675Z,41.20
2019-01-20T17:00:49.833Z,38.87
2019-01-20T17:03:18.058Z,38.97
2019-01-20T17:05:46.535Z,38.73
2019-01-20T17:08:15.216Z,36.80
2019-01-20T17:10:43.352Z,38.37
2019-01-20T17:13:11.482Z,37.47
2019-01-20T17:15:41.960Z,39.67
2019-01-20T17:18:11.100Z,39.40
2019-01-20T17:20:39.239Z,39.70
2019-01-20T17:23:07.425Z,39.30
2019-01-20T17:25:35.580Z,39.37
2019-01-20T17:28:03.772Z,37.10
2019-01-20T17:30:33.380Z,40.07
2019-01-20T17:33:02.004Z,37.17
2019-01-20T17:35:30.131Z,40.47
2019-01-20T17:37:58.286Z,37.13
2019-01-20T17:40:45.883Z,38.47
2019-01-20T17:43:14.080Z,40.17
2019-01-20T17:45:47.613Z,37.63
2019-01-20T17:48:12.118Z,41.50
2019-01-20T17:50:41.213Z,38.77
2019-01-20T17:53:09.536Z,40.07
2019-01-20T17:55:37.682Z,39.57
2019-01-20T17:58:05.832Z,41.80
2019-01-20T18:00:40.115Z,38.67
2019-01-20T18:03:08.620Z,40.53
2019-01-20T18:05:37.043Z,41.77
2019-01-20T18:08:05.251Z,43.03
2019-01-20T18:10:33.455Z,42.80
2019-01-20T18:13:01.694Z,43.90
2019-01-20T18:15:30.106Z,42.60
2019-01-20T18:17:58.829Z,41.07
2019-01-20T18:20:28.571Z,40.20
2019-01-20T18:22:56.776Z,42.30
2019-01-20T18:25:24.915Z,44.97
2019-01-20T18:27:53.068Z,43.20
2019-01-20T18:30:22.291Z,45.20
2019-01-20T18:32:50.414Z,42.03
2019-01-20T18:35:18.562Z,42.17
2019-01-20T18:37:46.802Z,43.67
2019-01-20T18:40:16.554Z,41.77
2019-01-20T18:42:44.830Z,43.80
2019-01-20T18:45:14.176Z,47.53
2019-01-20T18:47:42.455Z,44.83
2019-01-20T18:50:12.168Z,44.10
2019-01-20T18:52:40.417Z,43.87
2019-01-20T18:55:12.646Z,45.80
2019-01-20T18:57:40.799Z,45.53
2019-01-20T19:00:10.577Z,45.13
2019-01-20T19:02:38.702Z,44.03
2019-01-20T19:05:08.488Z,45.97
2019-01-20T19:07:36.663Z,45.20
2019-01-20T19:10:06.452Z,47.73
2019-01-20T19:12:34.580Z,47.87
2019-01-20T19:15:02.743Z,45.03
2019-01-20T19:17:30.894Z,49.33
2019-01-20T19:19:59.040Z,47.47
2019-01-20T19:22:27.292Z,48.03
2019-01-20T19:24:55.442Z,58.97
2019-01-20T19:27:23.576Z,59.17
2019-01-20T19:29:51.802Z,50.40
2019-01-20T19:32:20.338Z,72.23
2019-01-20T19:34:48.486Z,70.13
2019-01-20T19:37:16.616Z,73.93
2019-01-20T19:39:50.494Z,69.63
2019-01-20T19:42:14.762Z,75.50
2019-01-20T19:44:42.967Z,78.60
2019-01-20T19:47:11.122Z,69.03
2019-01-20T19:49:39.250Z,75.53
2019-01-20T19:52:07.471Z,72.87
2019-01-20T19:54:35.683Z,79.57
2019-01-20T19:57:03.922Z,78.13
2019-01-20T19:59:32.070Z,75.43
2019-01-20T20:02:00.288Z,74.17
2019-01-20T20:04:28.460Z,71.10
2019-01-20T20:06:56.600Z,69.43
2019-01-20T20:09:24.875Z,68.63
2019-01-20T20:11:53.258Z,70.57
2019-01-20T20:14:21.410Z,71.27
2019-01-20T20:16:49.608Z,74.80
2019-01-20T20:19:17.887Z,70.97
2019-01-20T20:21:46.023Z,75.80
2019-01-20T20:24:14.164Z,72.73
2019-01-20T20:26:42.320Z,73.53
2019-01-20T20:29:10.455Z,72.13
2019-01-20T20:31:39.915Z,74.20
2019-01-20T20:34:08.061Z,71.03
2019-01-20T20:36:36.412Z,73.20
2019-01-20T20:39:05.805Z,73.10
2019-01-20T20:41:34.009Z,76.12
2019-01-20T20:44:02.221Z,72.00
2019-01-20T20:46:30.780Z,75.53
2019-01-20T20:48:59.086Z,72.00
2019-01-20T20:51:27.306Z,71.80
2019-01-20T20:53:55.467Z,71.27
2019-01-20T20:56:23.781Z,73.63
2019-01-20T20:58:51.978Z,73.33
2019-01-20T21:01:20.106Z,75.12
2019-01-20T21:03:48.278Z,75.17
2019-01-20T21:06:16.408Z,68.23
2019-01-20T21:08:48.423Z,73.23
2019-01-20T21:11:14.349Z,76.60
2019-01-20T21:13:42.484Z,80.23
2019-01-20T21:16:10.658Z,76.42
2019-01-20T21:18:38.784Z,74.93
2019-01-20T21:21:06.991Z,78.90
2019-01-20T21:23:35.168Z,73.17
2019-01-20T21:26:03.374Z,72.90
2019-01-20T21:28:31.517Z,70.67
2019-01-20T21:30:59.691Z,74.70
2019-01-20T21:33:30.677Z,72.97
2019-01-20T21:35:58.808Z,71.93
2019-01-20T21:38:26.958Z,71.40
2019-01-20T21:40:55.167Z,69.60
2019-01-20T21:43:23.385Z,75.67
2019-01-20T21:45:51.541Z,77.97
2019-01-20T21:48:19.702Z,77.93
2019-01-20T21:50:47.815Z,74.20
2019-01-20T21:53:16.099Z,73.47
2019-01-20T21:55:44.243Z,76.50
2019-01-20T21:58:12.384Z,73.20
2019-01-20T22:00:40.524Z,76.93
2019-01-20T22:03:08.664Z,75.50
2019-01-20T22:05:36.789Z,72.23
2019-01-20T22:08:04.940Z,76.87
2019-01-20T22:10:33.214Z,74.80
2019-01-20T22:13:01.474Z,73.07
2019-01-20T22:15:29.604Z,71.40
2019-01-20T22:17:57.754Z,72.77
2019-01-20T22:20:25.920Z,76.47
2019-01-20T22:22:54.055Z,75.70
2019-01-20T22:25:22.186Z,77.97
2019-01-20T22:27:50.363Z,73.40
2019-01-20T22:30:19.883Z,75.80
2019-01-20T22:32:48.003Z,74.77
2019-01-20T22:35:16.259Z,73.97
2019-01-20T22:37:44.463Z,79.13
2019-01-20T22:40:14.215Z,77.57
2019-01-20T22:42:42.420Z,74.83
2019-01-20T22:45:11.996Z,73.70
2019-01-20T22:47:40.136Z,72.23
2019-01-20T22:50:09.633Z,71.43
2019-01-20T22:52:43.753Z,73.47
2019-01-20T22:55:13.168Z,74.63
2019-01-20T22:57:41.345Z,75.77
2019-01-20T23:00:11.050Z,69.77
2019-01-20T23:02:39.361Z,76.03
2019-01-20T23:05:07.481Z,70.07
2019-01-20T23:07:35.627Z,72.90
2019-01-20T23:10:05.079Z,75.47
2019-01-20T23:12:52.747Z,75.40
2019-01-20T23:15:21.330Z,75.90
2019-01-20T23:17:49.573Z,73.13
2019-01-20T23:20:18.146Z,69.80
2019-01-20T23:22:46.395Z,71.13
2019-01-20T23:25:14.541Z,80.07
2019-01-20T23:27:42.770Z,74.70
2019-01-20T23:30:12.603Z,79.47
2019-01-20T23:32:40.752Z,77.33
2019-01-20T23:35:08.870Z,77.17
2019-01-20T23:37:37.058Z,77.03
2019-01-20T23:40:09.862Z,74.83
2019-01-20T23:42:37.990Z,77.27
2019-01-20T23:45:07.514Z,77.53
2019-01-20T23:47:35.724Z,78.47
2019-01-20T23:50:05.436Z,77.32
2019-01-20T23:52:34.096Z,78.67
2019-01-20T23:55:02.214Z,78.97
2019-01-20T23:57:30.376Z,81.83
2019-01-20T23:59:59.526Z,78.60
